Time;durP1;ratioP1;P1;durP2;ratioP2;P2;SDS_P1;SDS_P2;PMS_P1;PMS_P2;Temp;Humidity;BMP_temperature;BMP_pressure;BME280_temperature;BME280_humidity;BME280_pressure;Samples;Min_cycle;Max_cycle;Signal;HPM_P1;HPM_P2
2021/07/21 00:00:30;;;;;;;11.40;9.07;;;;;;;;;;5042842;28;20212;-88
2021/07/21 00:03:34;;;;;;;14.23;9.60;;;;;;;;;;5053567;28;20532;-88
2021/07/21 00:06:38;;;;;;;13.20;8.17;;;;;;;;;;5031147;28;20184;-88
2021/07/21 00:09:42;;;;;;;14.33;9.50;;;;;;;;;;5042248;28;20208;-87
2021/07/21 00:16:25;;;;;;;14.07;8.93;;;;;;;;;;5022730;28;20185;-88
2021/07/21 00:22:52;;;;;;;13.77;10.00;;;;;;;;;;5022450;28;20181;-88
2021/07/21 00:25:56;;;;;;;15.80;9.73;;;;;;;;;;5033395;28;20694;-88
2021/07/21 00:29:01;;;;;;;16.57;9.83;;;;;;;;;;5022467;28;20176;-88
2021/07/21 00:32:05;;;;;;;13.40;9.77;;;;;;;;;;5033241;28;20185;-88
2021/07/21 00:35:15;;;;;;;14.07;9.67;;;;;;;;;;5033294;28;20516;-88
2021/07/21 00:38:19;;;;;;;13.10;9.90;;;;;;;;;;5022295;28;20181;-88
2021/07/21 00:41:23;;;;;;;14.27;9.97;;;;;;;;;;5021846;28;20228;-87
2021/07/21 00:44:27;;;;;;;12.07;9.30;;;;;;;;;;5022421;28;20204;-88
2021/07/21 00:47:34;;;;;;;11.90;9.90;;;;;;;;;;5022427;28;20189;-88
2021/07/21 00:50:38;;;;;;;13.07;9.10;;;;;;;;;;5021649;28;20216;-88
2021/07/21 00:53:42;;;;;;;17.47;9.53;;;;;;;;;;5021946;28;20189;-88
2021/07/21 00:56:51;;;;;;;14.60;9.63;;;;;;;;;;5033528;28;20177;-87
2021/07/21 00:59:57;;;;;;;16.60;10.63;;;;;;;;;;5022459;28;20220;-88
2021/07/21 01:03:03;;;;;;;13.07;9.37;;;;;;;;;;5021702;28;20236;-88
2021/07/21 01:06:10;;;;;;;12.40;9.20;;;;;;;;;;5032996;28;20224;-89
2021/07/21 01:09:16;;;;;;;14.67;9.10;;;;;;;;;;5022068;28;20184;-88
2021/07/21 01:12:41;;;;;;;14.60;9.00;;;;;;;;;;5021830;28;20189;-87
2021/07/21 01:16:00;;;;;;;13.83;9.47;;;;;;;;;;5021957;28;20624;-89
2021/07/21 01:19:15;;;;;;;13.43;9.13;;;;;;;;;;5022185;28;20185;-89
2021/07/21 01:22:27;;;;;;;11.63;9.57;;;;;;;;;;5021623;28;20184;-88
2021/07/21 01:25:41;;;;;;;13.63;10.13;;;;;;;;;;5021538;28;20659;-89
2021/07/21 01:28:55;;;;;;;14.60;10.50;;;;;;;;;;5021660;28;20197;-88
2021/07/21 01:32:01;;;;;;;13.77;10.43;;;;;;;;;;5021425;28;20219;-88
2021/07/21 01:35:11;;;;;;;15.20;10.47;;;;;;;;;;5032928;28;20190;-89
2021/07/21 01:38:21;;;;;;;14.23;10.40;;;;;;;;;;5021592;28;20538;-89
2021/07/21 01:41:35;;;;;;;14.80;9.97;;;;;;;;;;5022699;28;20591;-88
2021/07/21 01:44:43;;;;;;;12.87;9.67;;;;;;;;;;5021785;28;20185;-89
2021/07/21 01:47:49;;;;;;;16.43;10.90;;;;;;;;;;5021631;28;20201;-89
2021/07/21 01:51:00;;;;;;;14.27;9.60;;;;;;;;;;5021121;28;20231;-89
2021/07/21 01:54:09;;;;;;;13.93;10.37;;;;;;;;;;5043988;28;20200;-89
2021/07/21 01:57:15;;;;;;;14.37;10.10;;;;;;;;;;5032600;28;20184;-89
2021/07/21 02:00:35;;;;;;;16.93;10.40;;;;;;;;;;5011813;28;20227;-89
2021/07/21 02:03:41;;;;;;;13.87;10.57;;;;;;;;;;5025049;28;20181;-89
2021/07/21 02:06:50;;;;;;;13.97;9.67;;;;;;;;;;5024876;28;20209;-89
2021/07/21 02:09:54;;;;;;;13.77;10.47;;;;;;;;;;5024755;28;20181;-88
2021/07/21 02:13:18;;;;;;;14.83;10.50;;;;;;;;;;5036279;28;20200;-89
2021/07/21 02:16:43;;;;;;;16.50;10.50;;;;;;;;;;5036335;28;20177;-88
2021/07/21 02:19:53;;;;;;;13.83;9.23;;;;;;;;;;5035812;28;20200;-88
2021/07/21 02:23:08;;;;;;;17.53;10.83;;;;;;;;;;5034642;28;20211;-89
2021/07/21 02:26:39;;;;;;;14.70;10.43;;;;;;;;;;5037226;28;20238;-89
2021/07/21 02:29:46;;;;;;;16.27;10.73;;;;;;;;;;5044320;28;20663;-89
2021/07/21 02:33:13;;;;;;;15.53;10.97;;;;;;;;;;5033284;28;20188;-89
2021/07/21 02:36:18;;;;;;;15.43;11.87;;;;;;;;;;5033057;28;20192;-89
2021/07/21 02:39:24;;;;;;;15.00;10.80;;;;;;;;;;5044495;28;20184;-89
2021/07/21 02:42:28;;;;;;;16.07;11.13;;;;;;;;;;5033051;28;20176;-89
2021/07/21 02:45:35;;;;;;;16.33;10.77;;;;;;;;;;5043993;28;20215;-89
2021/07/21 02:48:45;;;;;;;16.17;10.90;;;;;;;;;;5055248;28;20685;-88
2021/07/21 02:52:01;;;;;;;17.37;11.37;;;;;;;;;;5043732;28;20228;-89
2021/07/21 02:55:46;;;;;;;13.70;10.50;;;;;;;;;;5055207;28;20202;-88
2021/07/21 02:59:01;;;;;;;14.33;10.93;;;;;;;;;;5043777;28;20185;-89
2021/07/21 03:02:08;;;;;;;16.60;10.87;;;;;;;;;;5055150;28;20657;-88
2021/07/21 03:05:20;;;;;;;13.77;10.17;;;;;;;;;;5055594;28;20211;-88
2021/07/21 03:08:37;;;;;;;13.40;10.27;;;;;;;;;;5041871;28;20193;-89
2021/07/21 03:12:03;;;;;;;15.50;10.40;;;;;;;;;;5045304;28;20247;-90
2021/07/21 03:15:14;;;;;;;15.87;10.43;;;;;;;;;;5045751;28;20192;-89
2021/07/21 03:18:26;;;;;;;15.70;10.50;;;;;;;;;;5032495;28;20562;-88
2021/07/21 03:21:35;;;;;;;14.87;10.47;;;;;;;;;;5054711;28;20224;-89
2021/07/21 03:24:51;;;;;;;13.03;10.00;;;;;;;;;;5013289;28;20552;-89
2021/07/21 03:28:06;;;;;;;14.00;10.70;;;;;;;;;;5035383;28;20200;-88
2021/07/21 03:31:28;;;;;;;14.23;9.97;;;;;;;;;;5022547;28;20251;-88
2021/07/21 03:34:39;;;;;;;13.60;10.43;;;;;;;;;;5032285;28;20176;-88
2021/07/21 03:37:46;;;;;;;15.03;10.17;;;;;;;;;;5012268;28;20189;-88
2021/07/21 03:40:51;;;;;;;13.77;9.87;;;;;;;;;;5022996;28;20224;-88
2021/07/21 03:43:58;;;;;;;12.40;10.03;;;;;;;;;;5023529;28;20185;-89
2021/07/21 03:47:03;;;;;;;13.23;9.73;;;;;;;;;;5022866;28;20209;-89
2021/07/21 03:50:09;;;;;;;14.20;10.33;;;;;;;;;;5022568;28;20216;-88
2021/07/21 03:53:18;;;;;;;14.00;10.07;;;;;;;;;;5023061;28;20196;-88
2021/07/21 03:56:24;;;;;;;17.03;10.30;;;;;;;;;;5022988;28;20183;-88
2021/07/21 03:59:38;;;;;;;14.70;10.30;;;;;;;;;;5032338;28;20216;-87
2021/07/21 04:02:49;;;;;;;16.00;10.10;;;;;;;;;;5043178;28;20541;-88
2021/07/21 04:05:58;;;;;;;16.00;10.10;;;;;;;;;;5042672;28;20215;-88
2021/07/21 04:09:13;;;;;;;15.67;9.93;;;;;;;;;;5042954;28;20532;-88
2021/07/21 04:12:19;;;;;;;19.00;11.10;;;;;;;;;;5030667;28;20200;-89
2021/07/21 04:15:27;;;;;;;18.23;11.17;;;;;;;;;;5031595;28;20199;-88
2021/07/21 04:18:47;;;;;;;13.83;10.23;;;;;;;;;;5033263;28;20191;-89
2021/07/21 04:21:53;;;;;;;17.13;9.97;;;;;;;;;;5042330;28;20708;-88
2021/07/21 04:25:01;;;;;;;13.43;10.20;;;;;;;;;;5030710;28;20188;-88
2021/07/21 04:28:10;;;;;;;14.63;10.40;;;;;;;;;;5031365;28;20227;-88
2021/07/21 04:31:27;;;;;;;16.87;11.23;;;;;;;;;;5033002;28;20228;-88
2021/07/21 04:34:37;;;;;;;14.40;10.20;;;;;;;;;;5032630;28;20183;-88
2021/07/21 04:37:42;;;;;;;16.53;10.00;;;;;;;;;;5031149;28;20646;-88
2021/07/21 04:40:47;;;;;;;13.40;10.20;;;;;;;;;;5043634;22;20727;-85
2021/07/21 04:44:15;;;;;;;13.10;9.67;;;;;;;;;;5033612;28;20191;-85
2021/07/21 04:47:36;;;;;;;15.10;11.23;;;;;;;;;;5011495;28;20224;-85
2021/07/21 04:50:49;;;;;;;14.17;10.90;;;;;;;;;;5014567;28;20717;-85
2021/07/21 04:54:02;;;;;;;14.27;10.20;;;;;;;;;;5022836;28;20199;-85
2021/07/21 04:57:08;;;;;;;14.40;10.37;;;;;;;;;;5022254;28;20196;-85
2021/07/21 05:00:22;;;;;;;13.00;10.30;;;;;;;;;;5012280;28;20196;-85
2021/07/21 05:03:46;;;;;;;17.10;11.07;;;;;;;;;;5024650;28;20207;-85
2021/07/21 05:07:04;;;;;;;12.43;10.00;;;;;;;;;;5012641;28;20235;-85
2021/07/21 05:10:20;;;;;;;15.47;11.27;;;;;;;;;;5012160;28;20191;-85
2021/07/21 05:13:26;;;;;;;14.80;10.77;;;;;;;;;;5010841;28;20256;-85
2021/07/21 05:16:30;;;;;;;21.67;11.03;;;;;;;;;;5021836;28;20188;-85
2021/07/21 05:19:35;;;;;;;18.50;11.13;;;;;;;;;;5010619;28;20191;-85
2021/07/21 05:22:45;;;;;;;14.40;11.30;;;;;;;;;;5021699;28;20211;-85
2021/07/21 05:25:50;;;;;;;19.37;10.90;;;;;;;;;;5032790;28;20219;-85
2021/07/21 05:29:23;;;;;;;16.17;10.10;;;;;;;;;;5031451;28;20539;-85
2021/07/21 05:32:40;;;;;;;19.43;10.87;;;;;;;;;;5023357;28;20188;-84
2021/07/21 05:35:49;;;;;;;23.47;11.47;;;;;;;;;;5023303;28;20203;-85
2021/07/21 05:38:59;;;;;;;21.13;12.07;;;;;;;;;;5014783;28;20195;-85
2021/07/21 05:42:03;;;;;;;36.23;12.90;;;;;;;;;;5014530;28;20231;-85
2021/07/21 05:45:10;;;;;;;23.83;11.27;;;;;;;;;;5048230;28;20192;-85
2021/07/21 05:48:16;;;;;;;26.13;12.60;;;;;;;;;;5014072;28;20192;-85
2021/07/21 05:51:38;;;;;;;24.30;11.30;;;;;;;;;;5036597;28;20714;-85
2021/07/21 05:54:56;;;;;;;21.73;11.33;;;;;;;;;;5016426;28;20188;-85
2021/07/21 05:58:01;;;;;;;27.47;11.63;;;;;;;;;;5037151;28;20181;-85
2021/07/21 06:01:06;;;;;;;20.73;11.97;;;;;;;;;;5014216;28;20232;-85
2021/07/21 06:04:12;;;;;;;26.00;12.13;;;;;;;;;;5025530;28;20192;-85
2021/07/21 06:07:54;;;;;;;18.57;11.23;;;;;;;;;;5033070;28;20575;-85
2021/07/21 06:11:30;;;;;;;22.37;10.87;;;;;;;;;;5024707;28;20232;-85
2021/07/21 06:14:34;;;;;;;24.67;11.97;;;;;;;;;;5036145;28;20204;-85
2021/07/21 06:17:39;;;;;;;16.57;11.07;;;;;;;;;;5013607;28;20204;-85
2021/07/21 06:20:43;;;;;;;19.40;12.27;;;;;;;;;;5004936;28;20236;-85
2021/07/21 06:23:48;;;;;;;18.67;10.63;;;;;;;;;;5004727;28;20564;-85
2021/07/21 06:26:52;;;;;;;19.47;10.97;;;;;;;;;;5004778;28;20221;-85
2021/07/21 06:30:14;;;;;;;16.03;10.77;;;;;;;;;;5004894;28;20196;-85
2021/07/21 06:33:20;;;;;;;19.03;12.27;;;;;;;;;;4993767;28;20258;-85
2021/07/21 06:36:26;;;;;;;18.17;12.00;;;;;;;;;;5004896;28;20184;-85
2021/07/21 06:39:30;;;;;;;21.50;12.23;;;;;;;;;;4993598;28;20188;-85
2021/07/21 06:42:36;;;;;;;19.97;12.33;;;;;;;;;;5004499;28;20212;-85
2021/07/21 06:45:42;;;;;;;17.80;12.30;;;;;;;;;;5015780;28;20196;-85
2021/07/21 06:48:53;;;;;;;19.43;12.10;;;;;;;;;;5014859;28;20213;-85
2021/07/21 06:52:01;;;;;;;15.47;12.10;;;;;;;;;;5015700;28;20232;-85
2021/07/21 06:55:14;;;;;;;21.40;12.43;;;;;;;;;;5005398;28;20204;-85
2021/07/21 06:58:23;;;;;;;21.90;12.77;;;;;;;;;;4993407;28;20560;-85
2021/07/21 07:01:32;;;;;;;21.10;12.07;;;;;;;;;;5004231;28;20232;-85
2021/07/21 07:04:54;;;;;;;22.40;13.17;;;;;;;;;;5015495;28;20197;-85
2021/07/21 07:08:34;;;;;;;17.17;11.47;;;;;;;;;;4977372;28;20182;-85
2021/07/21 07:11:56;;;;;;;17.20;12.20;;;;;;;;;;5006639;28;20232;-85
2021/07/21 07:15:01;;;;;;;19.83;12.60;;;;;;;;;;5015398;28;20528;-85
2021/07/21 07:18:06;;;;;;;24.07;12.60;;;;;;;;;;4992767;28;20189;-85
2021/07/21 07:21:10;;;;;;;21.30;12.03;;;;;;;;;;4992367;28;20236;-85
2021/07/21 07:24:14;;;;;;;15.77;11.33;;;;;;;;;;4992284;28;20188;-85
2021/07/21 07:27:19;;;;;;;22.03;11.73;;;;;;;;;;5023248;28;20219;-85
2021/07/21 07:30:24;;;;;;;20.10;11.07;;;;;;;;;;5023414;28;20192;-85
2021/07/21 07:33:28;;;;;;;19.73;11.13;;;;;;;;;;5023492;28;20192;-85
2021/07/21 07:36:32;;;;;;;19.87;11.37;;;;;;;;;;5034512;28;20188;-85
2021/07/21 07:39:36;;;;;;;21.43;10.43;;;;;;;;;;5023132;28;20252;-85
2021/07/21 07:42:40;;;;;;;15.23;10.07;;;;;;;;;;5029095;28;20226;-86
2021/07/21 07:45:47;;;;;;;16.90;10.87;;;;;;;;;;5023140;28;20223;-86
2021/07/21 07:48:52;;;;;;;14.93;10.40;;;;;;;;;;5011680;28;20184;-86
2021/07/21 07:51:57;;;;;;;14.40;9.93;;;;;;;;;;5022801;28;20219;-86
2021/07/21 07:55:01;;;;;;;23.07;11.13;;;;;;;;;;5023059;28;20193;-86
2021/07/21 07:58:05;;;;;;;19.83;10.50;;;;;;;;;;5022647;28;20659;-85
2021/07/21 08:01:10;;;;;;;16.00;11.00;;;;;;;;;;5033976;28;20219;-85
2021/07/21 08:04:13;;;;;;;14.67;10.20;;;;;;;;;;5011710;28;20192;-86
2021/07/21 08:07:18;;;;;;;15.80;10.83;;;;;;;;;;5011190;28;20225;-86
2021/07/21 08:10:22;;;;;;;17.53;9.87;;;;;;;;;;5022166;28;20213;-85
2021/07/21 08:13:28;;;;;;;17.03;9.97;;;;;;;;;;5011172;28;20197;-85
2021/07/21 08:16:32;;;;;;;17.37;9.50;;;;;;;;;;5011066;28;20202;-86
2021/07/21 08:19:39;;;;;;;14.77;9.23;;;;;;;;;;5033565;28;20201;-85
2021/07/21 08:22:44;;;;;;;11.87;8.93;;;;;;;;;;5015747;28;20179;-87
2021/07/21 08:25:48;;;;;;;13.73;9.93;;;;;;;;;;5013152;28;20186;-86
2021/07/21 08:28:52;;;;;;;13.98;8.88;;;;;;;;;;5011225;28;20196;-86
2021/07/21 08:31:56;;;;;;;14.18;8.82;;;;;;;;;;5021887;28;20591;-86
2021/07/21 08:35:00;;;;;;;12.77;8.48;;;;;;;;;;5010716;28;20679;-86
2021/07/21 08:38:06;;;;;;;12.98;8.38;;;;;;;;;;5022130;28;20179;-86
2021/07/21 08:41:26;;;;;;;12.75;8.68;;;;;;;;;;5014243;28;20227;-86
2021/07/21 08:44:30;;;;;;;11.88;8.70;;;;;;;;;;5021991;28;20188;-86
2021/07/21 08:47:34;;;;;;;10.60;8.15;;;;;;;;;;5032866;28;20210;-86
2021/07/21 08:50:43;;;;;;;13.80;8.70;;;;;;;;;;5033157;28;20220;-86
2021/07/21 08:53:49;;;;;;;11.55;8.48;;;;;;;;;;5010607;28;20181;-86
2021/07/21 08:56:56;;;;;;;8.35;6.82;;;;;;;;;;5022239;28;20188;-86
2021/07/21 09:00:06;;;;;;;12.23;7.53;;;;;;;;;;5021896;28;20182;-86
2021/07/21 09:03:11;;;;;;;9.05;7.40;;;;;;;;;;5044648;28;20182;-86
2021/07/21 09:06:15;;;;;;;9.40;7.35;;;;;;;;;;5032997;28;20181;-86
2021/07/21 09:09:20;;;;;;;10.77;7.22;;;;;;;;;;5021724;28;20189;-86
2021/07/21 09:12:24;;;;;;;11.52;7.25;;;;;;;;;;5021796;28;20220;-86
2021/07/21 09:15:29;;;;;;;12.27;6.72;;;;;;;;;;5021730;28;20530;-86
2021/07/21 09:18:53;;;;;;;8.88;7.13;;;;;;;;;;5032927;28;20204;-84
2021/07/21 09:22:38;;;;;;;11.48;7.70;;;;;;;;;;5009973;28;20223;-86
2021/07/21 09:25:43;;;;;;;9.32;7.50;;;;;;;;;;5021456;28;20191;-84
2021/07/21 09:28:49;;;;;;;11.40;8.10;;;;;;;;;;5021019;28;20684;-84
2021/07/21 09:31:59;;;;;;;9.80;7.40;;;;;;;;;;5010041;28;20556;-84
2021/07/21 09:35:04;;;;;;;14.65;7.32;;;;;;;;;;5010477;28;20177;-84
2021/07/21 09:38:11;;;;;;;9.35;7.07;;;;;;;;;;5021537;28;20624;-84
2021/07/21 09:41:16;;;;;;;8.52;7.57;;;;;;;;;;5021126;28;20588;-84
2021/07/21 09:44:37;;;;;;;9.43;7.10;;;;;;;;;;5032431;28;20190;-84
2021/07/21 09:47:52;;;;;;;7.50;6.15;;;;;;;;;;5010353;28;20209;-84
2021/07/21 09:50:56;;;;;;;9.90;7.05;;;;;;;;;;5032428;28;20213;-84
2021/07/21 09:54:20;;;;;;;7.90;6.32;;;;;;;;;;5009802;28;20181;-84
2021/07/21 09:57:24;;;;;;;12.80;7.10;;;;;;;;;;5020837;28;20198;-83
2021/07/21 10:00:31;;;;;;;8.68;6.22;;;;;;;;;;5021149;28;20181;-84
2021/07/21 10:03:39;;;;;;;9.50;6.85;;;;;;;;;;5009987;28;20181;-84
2021/07/21 10:06:44;;;;;;;7.70;6.53;;;;;;;;;;5009746;28;20660;-84
2021/07/21 10:09:48;;;;;;;11.10;6.93;;;;;;;;;;5021191;28;20193;-84
2021/07/21 10:13:08;;;;;;;8.45;6.90;;;;;;;;;;5032410;28;20186;-84
2021/07/21 10:16:30;;;;;;;7.90;6.65;;;;;;;;;;5021492;28;20517;-84
2021/07/21 10:19:35;;;;;;;9.75;7.10;;;;;;;;;;5021644;28;20186;-84
2021/07/21 10:22:39;;;;;;;7.15;6.45;;;;;;;;;;5010632;28;20181;-84
2021/07/21 10:25:43;;;;;;;8.00;7.15;;;;;;;;;;5013437;28;20640;-84
2021/07/21 10:28:48;;;;;;;10.00;6.90;;;;;;;;;;5024184;28;20205;-84
2021/07/21 10:31:53;;;;;;;8.95;7.18;;;;;;;;;;5013089;28;20691;-84
2021/07/21 10:34:58;;;;;;;10.40;7.10;;;;;;;;;;5013222;28;20181;-84
2021/07/21 10:38:03;;;;;;;18.63;7.57;;;;;;;;;;5013241;28;20196;-84
2021/07/21 10:41:08;;;;;;;8.40;6.97;;;;;;;;;;5012730;28;20575;-84
2021/07/21 10:44:14;;;;;;;8.25;6.97;;;;;;;;;;5047672;23;20572;-84
2021/07/21 10:47:21;;;;;;;8.07;6.63;;;;;;;;;;5024127;28;20218;-84
2021/07/21 10:54:11;;;;;;;7.57;6.78;;;;;;;;;;5030777;28;20225;-85
2021/07/21 11:00:48;;;;;;;8.93;6.60;;;;;;;;;;5023935;28;20170;-84
2021/07/21 11:04:03;;;;;;;9.90;6.72;;;;;;;;;;5012708;28;20216;-85
2021/07/21 11:07:07;;;;;;;9.15;6.93;;;;;;;;;;5012552;28;20177;-86
2021/07/21 11:10:12;;;;;;;8.05;7.07;;;;;;;;;;5012192;28;20185;-84
2021/07/21 11:13:28;;;;;;;7.78;6.68;;;;;;;;;;5023762;28;20185;-85
2021/07/21 11:16:39;;;;;;;7.70;6.53;;;;;;;;;;5023774;28;20193;-85
2021/07/21 11:19:52;;;;;;;8.75;6.70;;;;;;;;;;5035797;28;20185;-85
2021/07/21 11:23:34;;;;;;;11.82;7.43;;;;;;;;;;5012355;28;20189;-85
2021/07/21 11:26:44;;;;;;;10.43;7.25;;;;;;;;;;5024003;28;20181;-85
2021/07/21 11:29:48;;;;;;;8.52;7.05;;;;;;;;;;5034797;28;20177;-85
2021/07/21 11:32:52;;;;;;;8.88;7.20;;;;;;;;;;5034129;28;20537;-85
2021/07/21 11:35:56;;;;;;;7.53;6.70;;;;;;;;;;5012252;28;20201;-86
2021/07/21 11:39:00;;;;;;;26.67;8.40;;;;;;;;;;5023578;28;20178;-85
2021/07/21 11:42:07;;;;;;;8.23;6.25;;;;;;;;;;5023381;28;20181;-86
2021/07/21 11:45:19;;;;;;;7.72;6.65;;;;;;;;;;5022861;28;20217;-85
2021/07/21 11:48:23;;;;;;;8.95;6.53;;;;;;;;;;5011415;28;20217;-86
2021/07/21 11:51:27;;;;;;;8.85;5.97;;;;;;;;;;5023014;28;20181;-86
2021/07/21 11:54:34;;;;;;;9.48;6.13;;;;;;;;;;5034391;28;20225;-85
2021/07/21 11:57:39;;;;;;;8.70;6.63;;;;;;;;;;5023117;28;20652;-85
2021/07/21 12:00:50;;;;;;;9.48;6.72;;;;;;;;;;5022980;28;20185;-85
2021/07/21 12:03:54;;;;;;;8.18;6.45;;;;;;;;;;5033728;28;20217;-86
2021/07/21 12:06:59;;;;;;;6.80;5.65;;;;;;;;;;5023385;28;20620;-85
2021/07/21 12:10:15;;;;;;;9.68;6.85;;;;;;;;;;5023703;28;20177;-86
2021/07/21 12:13:20;;;;;;;11.20;5.88;;;;;;;;;;5023458;28;20198;-86
2021/07/21 12:16:25;;;;;;;6.65;5.95;;;;;;;;;;5011661;28;20193;-86
2021/07/21 12:19:29;;;;;;;8.50;6.28;;;;;;;;;;5011558;28;20173;-86
2021/07/21 12:22:36;;;;;;;8.32;6.30;;;;;;;;;;5034004;28;20177;-86
2021/07/21 12:25:40;;;;;;;10.18;6.47;;;;;;;;;;5011113;28;20224;-85
2021/07/21 12:28:54;;;;;;;7.30;6.55;;;;;;;;;;5010782;28;20217;-85
2021/07/21 12:32:05;;;;;;;7.93;6.00;;;;;;;;;;5022352;28;20182;-86
2021/07/21 12:35:10;;;;;;;9.38;6.18;;;;;;;;;;5033360;28;20224;-86
2021/07/21 12:38:14;;;;;;;6.10;5.50;;;;;;;;;;5022398;28;20509;-85
2021/07/21 12:41:22;;;;;;;8.77;6.00;;;;;;;;;;5022169;28;20177;-86
2021/07/21 12:44:26;;;;;;;12.70;5.97;;;;;;;;;;5021690;28;20228;-86
2021/07/21 12:47:34;;;;;;;8.25;6.07;;;;;;;;;;5022053;28;20177;-86
2021/07/21 12:50:40;;;;;;;9.10;6.32;;;;;;;;;;5010785;28;20178;-85
2021/07/21 12:53:46;;;;;;;6.20;5.57;;;;;;;;;;5021817;28;20216;-86
2021/07/21 12:56:50;;;;;;;10.25;6.13;;;;;;;;;;5010836;28;20177;-86
2021/07/21 12:59:57;;;;;;;14.93;6.32;;;;;;;;;;5010440;28;20177;-85
2021/07/21 13:03:10;;;;;;;9.75;5.57;;;;;;;;;;5021758;28;20188;-86
2021/07/21 13:06:22;;;;;;;8.40;6.65;;;;;;;;;;5010462;28;20185;-85
2021/07/21 13:09:27;;;;;;;6.50;5.65;;;;;;;;;;5021606;28;20209;-85
2021/07/21 13:12:33;;;;;;;6.88;6.18;;;;;;;;;;5022070;28;20635;-86
2021/07/21 13:15:37;;;;;;;7.85;6.57;;;;;;;;;;5021628;28;20209;-86
2021/07/21 13:18:46;;;;;;;8.82;6.60;;;;;;;;;;5032996;28;20189;-85
2021/07/21 13:21:51;;;;;;;7.57;6.43;;;;;;;;;;5021685;28;20189;-85
2021/07/21 13:24:56;;;;;;;7.32;6.05;;;;;;;;;;5010957;28;20220;-86
2021/07/21 13:28:29;;;;;;;9.20;6.18;;;;;;;;;;5010004;28;20181;-85
2021/07/21 13:31:38;;;;;;;10.82;5.97;;;;;;;;;;5021614;28;20181;-85
2021/07/21 13:34:44;;;;;;;7.50;6.47;;;;;;;;;;5021207;28;20221;-86
2021/07/21 13:37:55;;;;;;;7.70;6.90;;;;;;;;;;5032761;28;20177;-85
2021/07/21 13:41:09;;;;;;;7.55;6.30;;;;;;;;;;5010283;28;20205;-85
2021/07/21 13:44:19;;;;;;;7.68;6.40;;;;;;;;;;5009979;28;20233;-86
2021/07/21 13:47:27;;;;;;;14.25;7.30;;;;;;;;;;5010017;28;20189;-86
2021/07/21 13:50:31;;;;;;;8.38;6.55;;;;;;;;;;5021115;28;20664;-86
2021/07/21 13:53:36;;;;;;;14.15;7.35;;;;;;;;;;5010188;28;20620;-86
2021/07/21 13:56:41;;;;;;;7.80;7.00;;;;;;;;;;5021447;28;20189;-86
2021/07/21 13:59:46;;;;;;;9.95;7.10;;;;;;;;;;5014172;28;20177;-86
2021/07/21 14:02:50;;;;;;;7.78;6.97;;;;;;;;;;5025347;28;20177;-85
2021/07/21 14:05:54;;;;;;;10.13;6.72;;;;;;;;;;5013914;28;20189;-85
2021/07/21 14:08:58;;;;;;;9.10;7.18;;;;;;;;;;5024878;28;20209;-86
2021/07/21 14:12:03;;;;;;;11.55;6.90;;;;;;;;;;5013479;28;20181;-85
2021/07/21 14:15:07;;;;;;;9.10;6.72;;;;;;;;;;5013425;28;20228;-86
2021/07/21 14:18:11;;;;;;;8.38;6.97;;;;;;;;;;5013433;28;20632;-86
2021/07/21 14:21:16;;;;;;;7.82;7.00;;;;;;;;;;5013370;28;20185;-86
2021/07/21 14:24:21;;;;;;;8.65;6.93;;;;;;;;;;5013100;28;20221;-86
2021/07/21 14:27:25;;;;;;;10.23;7.00;;;;;;;;;;5035993;28;20185;-85
2021/07/21 14:30:29;;;;;;;9.27;6.70;;;;;;;;;;5012684;28;20205;-85
2021/07/21 14:33:33;;;;;;;11.90;6.57;;;;;;;;;;5035425;28;20196;-86
2021/07/21 14:36:37;;;;;;;8.60;7.13;;;;;;;;;;5024477;28;20196;-86
2021/07/21 14:39:41;;;;;;;9.68;6.68;;;;;;;;;;5035655;28;20185;-86
2021/07/21 14:42:45;;;;;;;9.27;7.32;;;;;;;;;;5024402;28;20176;-85
2021/07/21 14:45:49;;;;;;;10.98;7.32;;;;;;;;;;5006430;28;20205;-85
2021/07/21 14:48:53;;;;;;;8.75;6.50;;;;;;;;;;4993555;28;20213;-86
2021/07/21 14:51:57;;;;;;;7.93;6.40;;;;;;;;;;5004621;28;20186;-85
2021/07/21 14:55:01;;;;;;;7.38;6.55;;;;;;;;;;5004404;28;20221;-86
2021/07/21 14:58:06;;;;;;;8.07;6.55;;;;;;;;;;4993856;28;20186;-86
2021/07/21 15:01:11;;;;;;;8.80;7.15;;;;;;;;;;5004289;28;20177;-85
2021/07/21 15:04:16;;;;;;;10.70;7.32;;;;;;;;;;4993017;28;20217;-86
2021/07/21 15:07:19;;;;;;;9.30;6.93;;;;;;;;;;4992887;28;20185;-85
2021/07/21 15:10:24;;;;;;;8.85;7.07;;;;;;;;;;5003828;28;20673;-85
2021/07/21 15:13:28;;;;;;;10.55;7.35;;;;;;;;;;5003817;28;20182;-85
2021/07/21 15:16:33;;;;;;;17.05;8.07;;;;;;;;;;5003673;28;20201;-85
2021/07/21 15:19:38;;;;;;;14.63;7.95;;;;;;;;;;5004285;28;20174;-85
2021/07/21 15:22:42;;;;;;;13.07;6.88;;;;;;;;;;5003646;28;20181;-85
2021/07/21 15:25:47;;;;;;;9.95;6.70;;;;;;;;;;4992403;28;20214;-85
2021/07/21 15:28:51;;;;;;;6.95;6.25;;;;;;;;;;5011483;28;20205;-86
2021/07/21 15:31:55;;;;;;;9.75;7.60;;;;;;;;;;5015220;28;20181;-86
2021/07/21 15:34:59;;;;;;;8.27;6.45;;;;;;;;;;5003430;28;20213;-86
2021/07/21 15:38:04;;;;;;;9.00;6.65;;;;;;;;;;5004028;28;20178;-86
2021/07/21 15:41:08;;;;;;;9.32;7.20;;;;;;;;;;5003920;28;20177;-85
2021/07/21 15:44:13;;;;;;;10.18;6.80;;;;;;;;;;5014406;28;20700;-86
2021/07/21 15:47:17;;;;;;;7.97;6.97;;;;;;;;;;5014702;28;20185;-85
2021/07/21 15:50:21;;;;;;;7.63;6.82;;;;;;;;;;4991761;28;20226;-85
2021/07/21 15:53:25;;;;;;;8.25;6.65;;;;;;;;;;5014299;28;20526;-86
2021/07/21 15:56:30;;;;;;;9.27;6.97;;;;;;;;;;5003465;28;20188;-85
2021/07/21 15:59:35;;;;;;;9.02;6.80;;;;;;;;;;5014211;28;20172;-85
2021/07/21 16:02:39;;;;;;;12.05;7.13;;;;;;;;;;4991935;28;20176;-85
2021/07/21 16:05:45;;;;;;;9.00;7.05;;;;;;;;;;4991923;28;20227;-85
2021/07/21 16:08:50;;;;;;;11.38;6.32;;;;;;;;;;5002970;28;20183;-85
2021/07/21 16:11:56;;;;;;;13.13;6.93;;;;;;;;;;5007424;28;20188;-85
2021/07/21 16:15:01;;;;;;;8.15;7.25;;;;;;;;;;5011090;28;20220;-85
2021/07/21 16:18:06;;;;;;;12.18;7.18;;;;;;;;;;5011121;28;20179;-84
2021/07/21 16:21:10;;;;;;;9.50;7.00;;;;;;;;;;5022163;28;20180;-83
2021/07/21 16:24:16;;;;;;;12.38;6.65;;;;;;;;;;5020462;28;20224;-83
2021/07/21 16:27:20;;;;;;;9.48;7.50;;;;;;;;;;4993107;28;20183;-84
2021/07/21 16:30:26;;;;;;;10.35;7.00;;;;;;;;;;5003356;28;20219;-83
2021/07/21 16:33:30;;;;;;;8.73;7.15;;;;;;;;;;5016588;28;20203;-84
2021/07/21 16:36:35;;;;;;;9.13;7.18;;;;;;;;;;4991856;28;20189;-84
2021/07/21 16:39:39;;;;;;;13.82;7.40;;;;;;;;;;5012180;28;20178;-83
2021/07/21 16:42:43;;;;;;;13.23;8.18;;;;;;;;;;5000878;28;20188;-84
2021/07/21 16:45:48;;;;;;;11.27;7.72;;;;;;;;;;4989600;28;20227;-83
2021/07/21 16:48:52;;;;;;;9.77;7.95;;;;;;;;;;4989711;28;20185;-84
2021/07/21 16:51:56;;;;;;;15.30;7.40;;;;;;;;;;4992349;28;20191;-84
2021/07/21 16:55:01;;;;;;;11.00;7.45;;;;;;;;;;5018771;28;20587;-84
2021/07/21 16:58:05;;;;;;;9.00;7.22;;;;;;;;;;5011453;28;20859;-84
2021/07/21 17:01:09;;;;;;;10.75;7.35;;;;;;;;;;5021668;28;20177;-84
2021/07/21 17:04:13;;;;;;;8.77;7.47;;;;;;;;;;5008740;28;20216;-86
2021/07/21 17:07:17;;;;;;;8.95;7.00;;;;;;;;;;5045133;28;20218;-83
2021/07/21 17:10:23;;;;;;;10.40;7.90;;;;;;;;;;5033658;28;20216;-84
2021/07/21 17:13:27;;;;;;;11.67;7.50;;;;;;;;;;5027954;28;20198;-84
2021/07/21 17:16:32;;;;;;;7.53;6.13;;;;;;;;;;4990548;28;20193;-83
2021/07/21 17:19:36;;;;;;;9.93;7.07;;;;;;;;;;5022380;28;20196;-84
2021/07/21 17:22:40;;;;;;;10.00;7.30;;;;;;;;;;4990418;28;20622;-83
2021/07/21 17:25:45;;;;;;;10.97;6.83;;;;;;;;;;5008935;28;20224;-82
2021/07/21 17:28:50;;;;;;;9.73;7.77;;;;;;;;;;5008991;28;20183;-82
2021/07/21 17:31:56;;;;;;;9.60;7.20;;;;;;;;;;5010797;28;20194;-81
2021/07/21 17:34:59;;;;;;;8.63;7.17;;;;;;;;;;5034259;28;20225;-82
2021/07/21 17:38:05;;;;;;;11.43;7.23;;;;;;;;;;5058746;23;20223;-84
2021/07/21 17:41:09;;;;;;;10.67;7.47;;;;;;;;;;5055403;28;20172;-85
2021/07/21 17:44:14;;;;;;;8.17;7.30;;;;;;;;;;5053727;28;20204;-85
2021/07/21 17:47:18;;;;;;;12.47;7.53;;;;;;;;;;5044799;28;20198;-84
2021/07/21 17:50:23;;;;;;;10.43;7.10;;;;;;;;;;5026433;28;20220;-84
2021/07/21 17:53:27;;;;;;;9.73;7.40;;;;;;;;;;5026483;28;20193;-85
2021/07/21 17:56:31;;;;;;;10.57;6.83;;;;;;;;;;5038577;28;20182;-84
2021/07/21 17:59:35;;;;;;;9.70;6.70;;;;;;;;;;5026211;28;20187;-84
2021/07/21 18:02:39;;;;;;;15.30;7.27;;;;;;;;;;5027903;28;20182;-84
2021/07/21 18:05:43;;;;;;;12.47;8.70;;;;;;;;;;5016494;28;20183;-84
2021/07/21 18:08:48;;;;;;;12.63;9.00;;;;;;;;;;5027311;28;20220;-84
2021/07/21 18:11:53;;;;;;;17.07;9.93;;;;;;;;;;5028396;28;20185;-84
2021/07/21 18:14:57;;;;;;;17.87;8.80;;;;;;;;;;5027210;28;20181;-84
2021/07/21 18:18:03;;;;;;;10.50;7.73;;;;;;;;;;5015241;28;20213;-84
2021/07/21 18:21:12;;;;;;;9.53;8.40;;;;;;;;;;5026195;28;20178;-84
2021/07/21 18:24:16;;;;;;;9.47;7.70;;;;;;;;;;5015414;28;20181;-84
2021/07/21 18:27:20;;;;;;;10.30;7.37;;;;;;;;;;5025656;28;20204;-84
2021/07/21 18:30:24;;;;;;;12.93;7.70;;;;;;;;;;5025427;28;20205;-84
2021/07/21 18:33:28;;;;;;;10.50;7.60;;;;;;;;;;5024962;28;20181;-84
2021/07/21 18:36:32;;;;;;;9.27;7.13;;;;;;;;;;5036868;28;20177;-84
2021/07/21 18:39:36;;;;;;;10.47;7.50;;;;;;;;;;5024629;28;20208;-84
2021/07/21 18:42:41;;;;;;;11.17;7.40;;;;;;;;;;5014084;28;20177;-84
2021/07/21 18:45:46;;;;;;;10.27;6.90;;;;;;;;;;5036729;28;20513;-84